createdAt,value
2019-05-06T00:01:16.151Z,14.94
2019-05-06T00:03:46.622Z,14.95
2019-05-06T00:06:17.059Z,14.97
2019-05-06T00:08:47.550Z,14.91
2019-05-06T00:11:17.960Z,14.96
2019-05-06T00:13:48.425Z,14.83
2019-05-06T00:16:18.881Z,14.88
2019-05-06T00:18:49.354Z,14.84
2019-05-06T00:21:19.782Z,14.83
2019-05-06T00:23:54.348Z,14.81
2019-05-06T00:26:34.605Z,14.83
2019-05-06T00:29:06.832Z,14.74
2019-05-06T00:31:38.078Z,14.79
2019-05-06T00:34:08.642Z,14.77
2019-05-06T00:36:38.981Z,14.72
2019-05-06T00:39:11.144Z,14.78
2019-05-06T00:41:43.369Z,14.81
2019-05-06T00:44:14.392Z,14.69
2019-05-06T00:46:44.772Z,14.63
2019-05-06T00:49:15.358Z,14.54
2019-05-06T00:51:45.753Z,14.52
2019-05-06T00:54:20.618Z,14.50
2019-05-06T00:56:51.027Z,14.48
2019-05-06T00:59:23.696Z,14.59
2019-05-06T01:01:53.972Z,14.44
2019-05-06T01:04:24.585Z,14.51
2019-05-06T01:06:54.997Z,14.57
2019-05-06T01:09:25.756Z,14.53
2019-05-06T01:11:57.833Z,14.48
2019-05-06T01:14:29.887Z,14.56
2019-05-06T01:17:00.299Z,14.53
2019-05-06T01:19:30.755Z,14.45
2019-05-06T01:22:01.378Z,14.49
2019-05-06T01:24:31.831Z,14.53
2019-05-06T01:27:03.996Z,14.53
2019-05-06T01:29:34.898Z,14.39
2019-05-06T01:32:06.181Z,14.42
2019-05-06T01:34:36.812Z,14.36
2019-05-06T01:37:07.254Z,14.40
2019-05-06T01:39:39.261Z,14.38
2019-05-06T01:42:20.127Z,14.28
2019-05-06T01:44:50.615Z,14.27
2019-05-06T01:47:21.047Z,14.24
2019-05-06T01:49:53.608Z,14.33
2019-05-06T01:52:24.162Z,14.24
2019-05-06T01:54:54.650Z,14.27
2019-05-06T01:57:25.082Z,14.23
2019-05-06T01:59:55.668Z,14.09
2019-05-06T02:02:26.102Z,14.13
2019-05-06T02:04:56.543Z,14.01
2019-05-06T02:07:26.971Z,13.99
2019-05-06T02:09:57.438Z,14.07
2019-05-06T02:12:27.838Z,14.07
2019-05-06T02:14:58.392Z,14.05
2019-05-06T02:17:28.915Z,14.18
2019-05-06T02:19:59.408Z,14.18
2019-05-06T02:22:31.410Z,14.07
2019-05-06T02:25:04.509Z,14.17
2019-05-06T02:27:35.073Z,14.09
2019-05-06T02:30:15.082Z,14.08
2019-05-06T02:32:55.437Z,14.12
2019-05-06T02:35:35.043Z,14.13
2019-05-06T02:38:07.042Z,14.24
2019-05-06T02:40:37.527Z,14.34
2019-05-06T02:43:07.952Z,14.23
2019-05-06T02:45:38.416Z,14.25
2019-05-06T02:48:13.443Z,14.33
2019-05-06T02:50:46.823Z,14.35
2019-05-06T02:53:18.793Z,14.33
2019-05-06T02:55:49.305Z,14.24
2019-05-06T02:58:19.806Z,14.33
2019-05-06T03:00:53.692Z,14.29
2019-05-06T03:03:23.224Z,14.18
2019-05-06T03:05:53.921Z,14.21
2019-05-06T03:08:24.346Z,14.28
2019-05-06T03:10:54.722Z,14.36
2019-05-06T03:13:25.134Z,14.48
2019-05-06T03:15:55.605Z,14.58
2019-05-06T03:18:26.021Z,14.55
2019-05-06T03:20:58.070Z,14.52
2019-05-06T03:23:30.054Z,14.40
2019-05-06T03:26:03.758Z,14.40
2019-05-06T03:28:33.478Z,14.49
2019-05-06T03:31:06.651Z,14.53
2019-05-06T03:33:56.390Z,14.50
2019-05-06T03:36:18.451Z,14.39
2019-05-06T03:38:43.165Z,14.38
2019-05-06T03:41:13.905Z,14.39
2019-05-06T03:43:44.565Z,14.43
2019-05-06T03:46:25.303Z,14.40
2019-05-06T03:48:57.291Z,14.47
2019-05-06T03:51:27.753Z,14.59
2019-05-06T03:54:03.281Z,14.63
2019-05-06T03:56:33.937Z,14.52
2019-05-06T03:59:05.196Z,14.52
2019-05-06T04:01:35.658Z,14.66
2019-05-06T04:04:06.207Z,14.57
2019-05-06T04:06:36.990Z,14.67
2019-05-06T04:09:07.399Z,14.59
2019-05-06T04:11:39.439Z,14.65
2019-05-06T04:14:13.690Z,14.60
2019-05-06T04:17:03.133Z,14.59
2019-05-06T04:19:34.022Z,14.65
2019-05-06T04:22:12.957Z,14.57
2019-05-06T04:24:48.106Z,14.71
2019-05-06T04:27:43.981Z,14.63
2019-05-06T04:30:14.612Z,14.61
2019-05-06T04:32:45.167Z,14.76
2019-05-06T04:35:16.566Z,14.78
2019-05-06T04:37:47.151Z,14.92
2019-05-06T04:40:17.861Z,15.05
2019-05-06T04:42:48.326Z,15.07
2019-05-06T04:45:18.755Z,15.18
2019-05-06T04:47:49.228Z,15.15
2019-05-06T05:52:03.439Z,16.43
2019-05-06T05:54:35.191Z,16.42
2019-05-06T05:57:05.546Z,16.44
2019-05-06T05:59:36.003Z,16.58
2019-05-06T06:02:06.433Z,16.64
2019-05-06T06:04:37.006Z,16.87
2019-05-06T06:07:07.431Z,17.00
2019-05-06T06:09:39.457Z,17.17
2019-05-06T06:12:11.938Z,17.19
2019-05-06T06:14:46.977Z,17.44
2019-05-06T06:17:33.373Z,17.80
2019-05-06T06:20:22.479Z,17.77
2019-05-06T06:22:53.398Z,17.81
2019-05-06T06:25:24.159Z,17.97
2019-05-06T06:27:54.920Z,17.57
2019-05-06T06:30:30.036Z,17.28
2019-05-06T06:33:02.520Z,17.70
2019-05-06T06:35:34.204Z,17.91
2019-05-06T06:38:18.201Z,17.97
2019-05-06T06:40:55.116Z,18.56
2019-05-06T06:43:24.817Z,18.59
2019-05-06T06:45:56.521Z,18.58
2019-05-06T06:48:28.011Z,18.75
2019-05-06T06:51:03.305Z,18.98
2019-05-06T06:53:32.946Z,19.10
2019-05-06T06:56:22.046Z,19.34
2019-05-06T06:59:12.775Z,19.49
2019-05-06T07:01:49.027Z,19.72
2019-05-06T07:04:24.198Z,20.06
2019-05-06T07:06:56.300Z,20.12
2019-05-06T07:09:29.645Z,20.45
2019-05-06T07:12:00.557Z,20.50
2019-05-06T07:14:32.664Z,20.56
2019-05-06T07:17:03.457Z,20.43
2019-05-06T07:19:35.484Z,20.25
2019-05-06T07:22:06.991Z,20.23
2019-05-06T07:24:38.113Z,20.36
2019-05-06T07:27:19.086Z,20.46
2019-05-06T07:29:52.076Z,20.42
2019-05-06T07:32:23.224Z,20.44
2019-05-06T07:34:53.786Z,20.24
2019-05-06T07:37:24.389Z,20.53
2019-05-06T07:39:54.926Z,20.54
2019-05-06T07:42:26.970Z,20.73
2019-05-06T07:45:15.367Z,20.86
2019-05-06T07:47:48.770Z,21.01
2019-05-06T07:50:22.270Z,21.25
2019-05-06T07:53:08.308Z,21.24
2019-05-06T07:55:42.215Z,21.52
2019-05-06T07:58:14.568Z,21.77
2019-05-06T08:00:46.063Z,21.34
2019-05-06T08:03:18.612Z,21.09
2019-05-06T08:05:55.819Z,20.97
2019-05-06T08:08:23.200Z,21.04
2019-05-06T08:10:55.481Z,21.06
2019-05-06T08:13:26.953Z,21.44
2019-05-06T08:15:59.379Z,21.22
2019-05-06T08:18:33.132Z,21.26
2019-05-06T08:21:06.826Z,21.50
2019-05-06T08:23:39.819Z,21.34
2019-05-06T08:26:15.622Z,21.64
2019-05-06T08:28:44.512Z,22.03
2019-05-06T08:31:16.746Z,21.71
2019-05-06T08:33:47.249Z,22.11
2019-05-06T08:36:22.451Z,22.07
2019-05-06T08:39:02.913Z,22.21
2019-05-06T08:41:33.486Z,21.88
2019-05-06T08:44:04.326Z,21.93
2019-05-06T08:46:35.599Z,21.99
2019-05-06T08:49:07.061Z,22.36
2019-05-06T08:51:54.970Z,22.89
2019-05-06T08:54:27.500Z,23.24
2019-05-06T08:56:58.848Z,23.15
2019-05-06T08:59:32.192Z,23.50
2019-05-06T09:02:03.688Z,23.59
2019-05-06T09:04:36.078Z,23.75
2019-05-06T09:07:06.546Z,23.21
2019-05-06T09:09:37.259Z,23.31
2019-05-06T09:12:08.185Z,23.41
2019-05-06T09:14:39.058Z,23.73
2019-05-06T09:17:11.923Z,23.78
2019-05-06T09:19:43.347Z,23.62
2019-05-06T09:22:15.370Z,23.85
2019-05-06T09:24:46.916Z,23.60
2019-05-06T09:27:19.287Z,23.07
2019-05-06T09:29:52.137Z,23.34
2019-05-06T09:32:27.469Z,23.72
2019-05-06T09:34:58.597Z,24.30
2019-05-06T09:37:29.447Z,24.45
2019-05-06T09:40:02.528Z,24.42
2019-05-06T09:42:32.824Z,24.23
2019-05-06T09:45:03.601Z,24.33
2019-05-06T09:47:38.759Z,24.52
2019-05-06T09:50:12.718Z,24.11
2019-05-06T09:52:43.414Z,24.44
2019-05-06T09:55:18.788Z,24.51
2019-05-06T09:57:59.752Z,24.80
2019-05-06T10:00:37.050Z,25.10
2019-05-06T10:03:14.143Z,24.68
2019-05-06T10:05:45.188Z,23.85
2019-05-06T10:08:15.608Z,23.77
2019-05-06T10:10:55.966Z,24.36
2019-05-06T10:13:18.211Z,24.64
2019-05-06T10:15:48.675Z,24.00
2019-05-06T10:18:19.815Z,24.54
2019-05-06T10:20:50.284Z,24.43
2019-05-06T10:23:22.332Z,25.00
2019-05-06T10:25:52.892Z,24.82
2019-05-06T10:28:40.894Z,25.13
2019-05-06T10:31:12.920Z,24.90
2019-05-06T10:34:03.061Z,24.92
2019-05-06T10:36:53.300Z,24.54
2019-05-06T10:39:27.124Z,24.45
2019-05-06T10:42:13.383Z,24.20
2019-05-06T10:45:04.774Z,23.78
2019-05-06T10:47:35.270Z,24.18
2019-05-06T10:50:06.226Z,24.08
2019-05-06T10:52:51.811Z,24.16
2019-05-06T10:55:25.176Z,24.30
2019-05-06T10:57:55.793Z,23.54
2019-05-06T11:00:26.330Z,23.56
2019-05-06T11:03:14.445Z,23.68
2019-05-06T11:05:43.143Z,23.72
2019-05-06T11:08:14.271Z,24.00
2019-05-06T11:10:45.752Z,24.04
2019-05-06T11:13:16.488Z,23.96
2019-05-06T11:15:46.977Z,24.10
2019-05-06T11:18:24.956Z,24.28
2019-05-06T11:20:58.405Z,24.48
2019-05-06T11:23:29.236Z,24.34
2019-05-06T11:25:59.657Z,24.61
2019-05-06T11:28:42.678Z,24.73
2019-05-06T11:31:18.812Z,24.58
2019-05-06T11:33:52.559Z,24.74
2019-05-06T11:36:24.665Z,24.92
2019-05-06T11:38:55.148Z,24.49
2019-05-06T11:41:25.678Z,24.91
2019-05-06T11:43:56.203Z,24.73
2019-05-06T11:46:26.899Z,24.31
2019-05-06T11:48:57.724Z,24.66
2019-05-06T11:51:32.760Z,24.68
2019-05-06T11:54:07.566Z,24.85
2019-05-06T11:56:47.945Z,24.21
2019-05-06T11:59:07.291Z,24.08
2019-05-06T12:01:43.302Z,24.18
2019-05-06T12:04:13.903Z,24.51
2019-05-06T12:06:44.460Z,24.96
2019-05-06T12:09:16.988Z,25.72
2019-05-06T12:11:49.210Z,25.43
2019-05-06T12:14:19.865Z,24.47
2019-05-06T12:16:52.104Z,24.14
2019-05-06T12:19:22.740Z,24.57
2019-05-06T12:21:53.407Z,25.30
2019-05-06T12:24:23.937Z,26.25
2019-05-06T12:26:55.313Z,25.96
2019-05-06T12:29:25.793Z,26.20
2019-05-06T12:32:09.768Z,26.61
2019-05-06T12:34:40.373Z,27.34
2019-05-06T12:37:12.994Z,27.43
2019-05-06T12:39:45.286Z,26.88
2019-05-06T12:42:23.328Z,27.31
2019-05-06T12:44:56.433Z,26.74
2019-05-06T12:47:42.524Z,26.58
2019-05-06T12:50:14.931Z,26.04
2019-05-06T12:52:45.387Z,25.77
2019-05-06T12:55:21.506Z,24.98
2019-05-06T12:57:48.866Z,24.75
2019-05-06T13:00:19.765Z,24.73
2019-05-06T13:02:52.879Z,23.84
2019-05-06T13:05:23.747Z,23.86
2019-05-06T13:07:54.197Z,23.48
2019-05-06T13:10:27.829Z,23.31
2019-05-06T13:13:01.510Z,23.37
2019-05-06T13:15:32.246Z,23.45
2019-05-06T13:18:07.116Z,23.31
2019-05-06T13:20:37.628Z,23.45
2019-05-06T13:23:20.100Z,23.54
2019-05-06T13:25:45.651Z,23.55
2019-05-06T13:28:17.802Z,23.79
2019-05-06T13:30:48.566Z,23.60
2019-05-06T13:33:21.175Z,23.63
2019-05-06T13:35:53.505Z,23.69
2019-05-06T13:38:31.943Z,23.70
2019-05-06T13:41:13.479Z,23.85
2019-05-06T13:44:07.453Z,24.01
2019-05-06T13:46:41.544Z,23.56
2019-05-06T13:49:22.980Z,23.80
2019-05-06T13:52:01.026Z,23.87
2019-05-06T13:54:44.554Z,23.67
2019-05-06T13:57:18.352Z,23.88
2019-05-06T13:59:49.155Z,23.56
2019-05-06T14:02:34.107Z,23.18
2019-05-06T14:05:05.746Z,23.31
2019-05-06T14:07:36.546Z,23.40
2019-05-06T14:10:07.891Z,23.21
2019-05-06T14:12:38.927Z,22.86
2019-05-06T14:15:09.664Z,23.03
2019-05-06T14:17:42.174Z,22.89
2019-05-06T14:20:13.929Z,23.11
2019-05-06T14:22:46.461Z,23.24
2019-05-06T14:25:18.789Z,22.83
2019-05-06T14:27:52.616Z,22.99
2019-05-06T14:30:39.967Z,22.75
2019-05-06T14:33:15.373Z,22.89
2019-05-06T14:35:45.686Z,22.85
2019-05-06T14:38:18.638Z,22.76
2019-05-06T14:41:04.365Z,22.90
2019-05-06T14:43:43.457Z,22.93
2019-05-06T14:46:18.112Z,22.89
2019-05-06T14:48:48.946Z,22.53
2019-05-06T14:51:19.593Z,22.67
2019-05-06T14:53:52.765Z,22.47
2019-05-06T14:56:32.083Z,22.46
2019-05-06T14:59:08.986Z,22.58
2019-05-06T15:01:40.103Z,22.57
2019-05-06T15:04:12.558Z,22.64
2019-05-06T15:06:43.069Z,22.73
2019-05-06T15:09:16.907Z,22.78
2019-05-06T15:11:50.428Z,22.67
2019-05-06T15:14:23.423Z,22.65
2019-05-06T15:16:56.110Z,22.48
2019-05-06T15:19:26.524Z,22.56
2019-05-06T15:21:56.974Z,22.40
2019-05-06T15:24:27.917Z,22.33
2019-05-06T15:27:02.723Z,22.39
2019-05-06T15:29:33.725Z,22.38
2019-05-06T15:32:13.020Z,22.37
2019-05-06T15:34:48.714Z,22.39
2019-05-06T15:37:20.801Z,22.32
2019-05-06T15:39:52.263Z,22.35
2019-05-06T15:42:22.797Z,22.39
2019-05-06T15:44:53.340Z,22.27
2019-05-06T15:47:23.673Z,22.25
2019-05-06T15:49:54.170Z,22.26
2019-05-06T15:52:24.580Z,22.11
2019-05-06T15:54:55.031Z,22.05
2019-05-06T15:57:25.367Z,22.05
2019-05-06T15:59:55.784Z,22.08
2019-05-06T16:02:26.113Z,21.94
2019-05-06T16:04:56.515Z,21.90
2019-05-06T16:07:26.844Z,21.87
2019-05-06T16:09:58.178Z,21.86
2019-05-06T16:12:28.545Z,21.92
2019-05-06T16:14:59.003Z,21.77
2019-05-06T16:17:29.469Z,21.85
2019-05-06T16:19:59.888Z,21.83
2019-05-06T16:22:30.288Z,21.71
2019-05-06T16:25:02.749Z,21.72
2019-05-06T16:27:33.112Z,21.64
2019-05-06T16:30:04.040Z,21.60
2019-05-06T16:32:34.477Z,21.44
2019-05-06T16:35:06.437Z,21.44
2019-05-06T16:37:36.793Z,21.43
2019-05-06T16:40:07.589Z,21.38
2019-05-06T16:42:37.893Z,21.32
2019-05-06T16:45:08.771Z,21.26
2019-05-06T16:47:39.493Z,21.08
2019-05-06T16:50:13.259Z,21.05
2019-05-06T16:52:45.414Z,20.97
2019-05-06T16:55:20.698Z,20.95
2019-05-06T16:58:02.426Z,20.88
2019-05-06T17:00:35.220Z,20.77
2019-05-06T17:03:19.242Z,20.68
2019-05-06T17:06:06.061Z,20.74
2019-05-06T17:08:36.801Z,20.66
2019-05-06T17:11:07.439Z,20.69
2019-05-06T17:13:38.035Z,20.57
2019-05-06T17:16:08.436Z,20.40
2019-05-06T17:18:38.829Z,20.25
2019-05-06T17:21:09.270Z,20.41
2019-05-06T17:23:39.585Z,20.32
2019-05-06T17:26:10.079Z,20.12
2019-05-06T17:28:43.640Z,20.03
2019-05-06T17:31:22.409Z,19.90
2019-05-06T17:34:03.270Z,19.92
2019-05-06T17:36:35.337Z,19.89
2019-05-06T17:39:10.350Z,19.87
2019-05-06T17:41:48.303Z,19.78
2019-05-06T17:44:13.221Z,19.71
2019-05-06T17:46:47.945Z,19.59
2019-05-06T17:49:28.931Z,19.58
2019-05-06T17:52:06.721Z,19.57
2019-05-06T17:54:37.101Z,19.46
2019-05-06T17:57:07.603Z,19.44
2019-05-06T17:59:38.055Z,19.39
2019-05-06T18:02:15.978Z,19.34
2019-05-06T18:04:46.687Z,19.18
2019-05-06T18:07:17.195Z,19.20
2019-05-06T18:09:47.550Z,19.31
2019-05-06T18:12:19.006Z,19.15
2019-05-06T18:14:49.491Z,19.25
2019-05-06T18:17:22.008Z,19.14
2019-05-06T18:19:52.509Z,18.98
2019-05-06T18:22:22.910Z,18.97
2019-05-06T18:24:53.320Z,18.89
2019-05-06T18:27:23.813Z,18.61
2019-05-06T18:29:54.239Z,18.53
2019-05-06T18:32:24.712Z,18.60
2019-05-06T18:34:55.159Z,18.54
2019-05-06T18:37:25.677Z,18.60
2019-05-06T18:39:56.086Z,18.34
2019-05-06T18:42:26.604Z,18.26
2019-05-06T18:44:57.037Z,18.27
2019-05-06T18:47:27.562Z,18.28
2019-05-06T18:49:57.895Z,18.34
2019-05-06T18:52:28.372Z,18.16
2019-05-06T18:54:58.772Z,18.32
2019-05-06T18:57:29.292Z,18.31
2019-05-06T18:59:59.535Z,18.20
2019-05-06T19:02:29.891Z,18.12
2019-05-06T19:05:04.867Z,18.09
2019-05-06T19:07:35.256Z,17.96
2019-05-06T19:10:12.841Z,17.86
2019-05-06T19:12:44.018Z,17.75
2019-05-06T19:15:14.573Z,17.57
2019-05-06T19:17:45.111Z,17.38
2019-05-06T19:20:15.524Z,17.23
2019-05-06T19:22:46.018Z,17.20
2019-05-06T19:25:17.146Z,17.20
2019-05-06T19:27:47.634Z,17.11
2019-05-06T19:30:18.336Z,16.84
2019-05-06T19:32:48.817Z,16.68
2019-05-06T19:35:19.235Z,16.58
2019-05-06T19:37:49.714Z,16.65
2019-05-06T19:40:20.026Z,16.55
2019-05-06T19:42:53.188Z,16.67
2019-05-06T19:45:22.724Z,16.70
2019-05-06T19:47:53.123Z,16.73
2019-05-06T19:50:25.912Z,16.70
2019-05-06T19:52:56.499Z,16.79
2019-05-06T19:55:26.920Z,16.89
2019-05-06T19:57:57.390Z,16.96
2019-05-06T20:00:28.033Z,17.05
2019-05-06T20:02:58.493Z,17.07
2019-05-06T20:05:30.493Z,17.02
2019-05-06T20:08:02.945Z,16.90
2019-05-06T20:10:37.879Z,17.12
2019-05-06T20:13:09.968Z,17.20
2019-05-06T20:15:42.607Z,17.33
2019-05-06T20:18:13.257Z,17.50
2019-05-06T20:20:43.613Z,17.51
2019-05-06T20:23:13.980Z,17.53
2019-05-06T20:25:44.897Z,17.56
2019-05-06T20:28:15.575Z,17.55
2019-05-06T20:30:46.027Z,17.49
2019-05-06T20:33:16.465Z,17.48
2019-05-06T20:35:46.897Z,17.47
2019-05-06T20:38:17.370Z,17.51
2019-05-06T20:40:47.786Z,17.48
2019-05-06T20:43:21.645Z,17.29
2019-05-06T20:45:52.198Z,17.41
2019-05-06T20:48:23.491Z,17.53
2019-05-06T20:50:54.133Z,17.61
2019-05-06T20:53:24.481Z,17.61
2019-05-06T20:55:54.783Z,17.72
2019-05-06T20:58:25.044Z,17.83
2019-05-06T21:00:55.295Z,17.73
2019-05-06T21:03:25.758Z,17.85
2019-05-06T21:05:56.078Z,17.85
2019-05-06T21:08:26.426Z,17.72
2019-05-06T21:10:56.887Z,17.67
2019-05-06T21:13:32.386Z,17.76
2019-05-06T21:16:02.226Z,17.71
2019-05-06T21:18:32.629Z,17.69
2019-05-06T21:21:02.939Z,17.69
2019-05-06T21:23:33.407Z,17.68
2019-05-06T21:26:03.728Z,17.74
2019-05-06T21:28:34.097Z,17.84
2019-05-06T21:31:04.395Z,17.84
2019-05-06T21:33:34.872Z,17.74
2019-05-06T21:36:05.276Z,17.89
2019-05-06T21:38:35.608Z,17.85
2019-05-06T21:41:05.922Z,17.88
2019-05-06T21:43:46.008Z,17.85
2019-05-06T21:46:08.270Z,17.90
2019-05-06T21:48:38.724Z,17.92
2019-05-06T21:51:09.036Z,17.96
2019-05-06T21:53:39.498Z,18.03
2019-05-06T21:56:09.800Z,18.07
2019-05-06T21:58:40.175Z,18.01
2019-05-06T22:01:10.560Z,17.97
2019-05-06T22:03:43.217Z,17.93
2019-05-06T22:06:13.146Z,17.99
2019-05-06T22:08:43.475Z,17.92
2019-05-06T22:11:13.869Z,17.93
2019-05-06T22:13:57.782Z,17.90
2019-05-06T22:16:16.367Z,17.73
2019-05-06T22:18:46.706Z,17.72
2019-05-06T22:21:22.494Z,17.79
2019-05-06T22:23:54.628Z,17.58
2019-05-06T22:26:24.923Z,17.65
2019-05-06T22:28:55.489Z,17.69
2019-05-06T22:31:26.291Z,17.65
2019-05-06T22:33:56.577Z,17.57
2019-05-06T22:36:26.884Z,17.65
2019-05-06T22:38:57.154Z,17.65
2019-05-06T22:41:28.330Z,17.62
2019-05-06T22:44:12.165Z,17.75
2019-05-06T22:46:32.803Z,17.78
2019-05-06T22:49:02.772Z,17.80
2019-05-06T22:51:33.032Z,17.83
2019-05-06T22:54:03.371Z,17.68
2019-05-06T22:56:33.581Z,17.79
2019-05-06T22:59:03.966Z,17.75
2019-05-06T23:01:54.215Z,17.88
2019-05-06T23:04:25.645Z,17.83
2019-05-06T23:06:55.875Z,17.89
2019-05-06T23:09:26.235Z,17.75
2019-05-06T23:11:56.540Z,17.74
2019-05-06T23:14:31.650Z,17.73
2019-05-06T23:16:59.845Z,17.78
2019-05-06T23:19:31.801Z,17.67
2019-05-06T23:22:04.204Z,17.64
2019-05-06T23:24:34.272Z,17.66
2019-05-06T23:27:04.606Z,17.63
2019-05-06T23:29:35.061Z,17.60
2019-05-06T23:32:05.612Z,17.70
2019-05-06T23:34:36.086Z,17.62
2019-05-06T23:37:09.496Z,17.66
2019-05-06T23:40:17.257Z,17.55
2019-05-06T23:43:23.453Z,17.58
2019-05-06T23:46:29.499Z,17.42
2019-05-06T23:49:35.846Z,17.42
2019-05-06T23:52:42.213Z,17.39
2019-05-06T23:55:48.472Z,17.25
2019-05-06T23:58:17.539Z,17.16
